createdAt,value
2023-05-06T00:00:27.602Z,14.20
2023-05-06T00:02:56.715Z,14.20
2023-05-06T00:05:25.239Z,14.20
2023-05-06T00:07:53.657Z,14.20
2023-05-06T00:10:22.315Z,14.20
2023-05-06T00:12:50.908Z,14.20
2023-05-06T00:15:19.445Z,14.20
2023-05-06T00:17:49.086Z,14.20
2023-05-06T00:20:18.058Z,14.20
2023-05-06T00:22:46.634Z,14.20
2023-05-06T00:25:15.083Z,14.20
2023-05-06T00:27:43.578Z,14.10
2023-05-06T00:30:13.232Z,14.10
2023-05-06T00:32:41.659Z,14.20
2023-05-06T00:35:13.412Z,14.10
2023-05-06T00:37:42.132Z,14.10
2023-05-06T00:40:12.095Z,14.10
2023-05-06T00:42:40.508Z,14.10
2023-05-06T00:45:09.812Z,14.10
2023-05-06T00:47:38.453Z,14.10
2023-05-06T00:50:08.291Z,14.00
2023-05-06T00:52:37.969Z,14.00
2023-05-06T00:55:07.094Z,13.90
2023-05-06T00:57:35.675Z,13.90
2023-05-06T01:00:07.164Z,13.80
2023-05-06T01:02:46.597Z,13.90
2023-05-06T01:05:17.096Z,13.80
2023-05-06T01:07:53.507Z,13.80
2023-05-06T01:10:29.218Z,13.70
2023-05-06T01:13:06.826Z,13.80
2023-05-06T01:15:38.632Z,13.70
2023-05-06T01:18:12.077Z,13.70
2023-05-06T01:20:43.556Z,13.70
2023-05-06T01:23:15.203Z,13.70
2023-05-06T01:25:43.751Z,13.70
2023-05-06T01:28:13.007Z,13.60
2023-05-06T01:30:49.763Z,13.60
2023-05-06T01:33:25.804Z,13.60
2023-05-06T01:36:03.349Z,13.60
2023-05-06T01:38:42.502Z,13.60
2023-05-06T01:41:15.993Z,13.50
2023-05-06T01:43:45.944Z,13.50
2023-05-06T01:46:19.185Z,13.50
2023-05-06T01:48:50.336Z,13.50
2023-05-06T01:51:18.849Z,13.40
2023-05-06T01:53:48.480Z,13.40
2023-05-06T01:56:16.969Z,13.40
2023-05-06T01:58:45.508Z,13.40
2023-05-06T02:01:13.936Z,13.40
2023-05-06T02:03:42.582Z,13.30
2023-05-06T02:06:11.170Z,13.30
2023-05-06T02:08:41.175Z,13.30
2023-05-06T02:11:10.783Z,13.30
2023-05-06T02:13:39.263Z,13.20
2023-05-06T02:16:08.902Z,13.30
2023-05-06T02:18:37.711Z,13.30
2023-05-06T02:21:06.094Z,13.20
2023-05-06T02:23:34.505Z,13.20
2023-05-06T02:26:03.630Z,13.10
2023-05-06T02:28:33.413Z,13.10
2023-05-06T02:31:01.832Z,13.00
2023-05-06T02:33:30.190Z,13.00
2023-05-06T02:35:58.641Z,12.90
2023-05-06T02:38:27.986Z,13.00
2023-05-06T02:40:56.443Z,12.90
2023-05-06T02:43:24.901Z,12.90
2023-05-06T02:45:54.559Z,12.90
2023-05-06T02:48:22.992Z,13.00
2023-05-06T02:50:52.430Z,13.00
2023-05-06T02:53:20.995Z,13.00
2023-05-06T02:55:49.397Z,13.00
2023-05-06T02:58:18.155Z,13.00
2023-05-06T03:00:46.683Z,12.90
2023-05-06T03:03:16.417Z,12.90
2023-05-06T03:05:44.741Z,12.80
2023-05-06T03:08:13.145Z,12.80
2023-05-06T03:10:41.568Z,12.80
2023-05-06T03:13:10.168Z,12.80
2023-05-06T03:15:38.620Z,12.80
2023-05-06T03:18:07.708Z,12.70
2023-05-06T03:20:37.643Z,12.80
2023-05-06T03:23:06.266Z,12.70
2023-05-06T03:25:34.642Z,12.70
2023-05-06T03:28:03.063Z,12.60
2023-05-06T03:30:31.447Z,12.60
2023-05-06T03:33:01.603Z,12.60
2023-05-06T03:35:30.154Z,12.60
2023-05-06T03:37:59.711Z,12.60
2023-05-06T03:40:28.582Z,12.60
2023-05-06T03:42:56.995Z,12.60
2023-05-06T03:45:25.656Z,12.50
2023-05-06T03:47:53.945Z,12.50
2023-05-06T03:50:22.398Z,12.50
2023-05-06T03:52:51.088Z,12.40
2023-05-06T03:55:21.004Z,12.40
2023-05-06T03:57:49.796Z,12.40
2023-05-06T04:00:18.706Z,12.40
2023-05-06T04:02:47.158Z,12.40
2023-05-06T04:05:16.277Z,12.40
2023-05-06T04:07:44.660Z,12.40
2023-05-06T04:10:13.336Z,12.50
2023-05-06T04:12:43.221Z,12.40
2023-05-06T04:15:12.385Z,12.50
2023-05-06T04:17:41.113Z,12.40
2023-05-06T04:20:10.868Z,12.40
2023-05-06T04:22:39.530Z,12.40
2023-05-06T04:25:09.236Z,12.30
2023-05-06T04:27:37.887Z,12.30
2023-05-06T04:30:08.768Z,12.30
2023-05-06T04:32:38.707Z,12.30
2023-05-06T04:35:08.235Z,12.30
2023-05-06T04:37:36.755Z,12.40
2023-05-06T04:40:05.917Z,12.40
2023-05-06T04:42:34.714Z,12.40
2023-05-06T04:45:03.549Z,12.40
2023-05-06T04:47:33.235Z,12.40
2023-05-06T04:50:01.544Z,12.60
2023-05-06T04:52:30.352Z,12.60
2023-05-06T04:54:58.812Z,12.60
2023-05-06T04:57:27.317Z,12.70
2023-05-06T04:59:56.008Z,12.70
2023-05-06T05:02:24.772Z,12.80
2023-05-06T05:04:54.470Z,12.80
2023-05-06T05:07:22.828Z,12.80
2023-05-06T05:09:51.448Z,12.80
2023-05-06T05:12:19.848Z,12.80
2023-05-06T05:14:48.472Z,12.90
2023-05-06T05:17:17.042Z,12.90
2023-05-06T05:19:45.839Z,12.90
2023-05-06T05:22:15.979Z,12.90
2023-05-06T05:24:44.426Z,12.90
2023-05-06T05:27:12.806Z,12.90
2023-05-06T05:29:41.202Z,13.00
2023-05-06T05:32:09.771Z,13.10
2023-05-06T05:34:38.150Z,13.10
2023-05-06T05:37:06.602Z,13.20
2023-05-06T05:39:36.710Z,13.30
2023-05-06T05:42:05.254Z,13.30
2023-05-06T05:44:33.627Z,13.40
2023-05-06T05:47:02.838Z,13.40
2023-05-06T05:49:31.275Z,13.90
2023-05-06T05:51:59.544Z,13.80
2023-05-06T05:54:27.982Z,13.80
2023-05-06T05:56:58.074Z,13.90
2023-05-06T05:59:26.974Z,14.00
2023-05-06T06:01:55.506Z,14.10
2023-05-06T06:04:23.886Z,14.20
2023-05-06T06:06:52.766Z,14.20
2023-05-06T06:09:21.224Z,14.30
2023-05-06T06:11:49.638Z,14.40
2023-05-06T06:14:19.344Z,14.40
2023-05-06T06:16:47.936Z,14.50
2023-05-06T06:19:16.803Z,14.70
2023-05-06T06:21:45.145Z,14.70
2023-05-06T06:24:14.563Z,14.70
2023-05-06T06:26:42.979Z,14.70
2023-05-06T06:29:11.502Z,14.80
2023-05-06T06:31:41.195Z,14.70
2023-05-06T06:34:12.552Z,14.80
2023-05-06T06:36:45.200Z,14.80
2023-05-06T06:39:14.061Z,14.80
2023-05-06T06:41:42.500Z,14.90
2023-05-06T06:44:10.919Z,14.90
2023-05-06T06:46:40.573Z,14.90
2023-05-06T06:49:08.961Z,14.90
2023-05-06T06:51:37.417Z,15.00
2023-05-06T06:54:05.728Z,15.00
2023-05-06T06:56:34.175Z,15.00
2023-05-06T06:59:02.932Z,15.00
2023-05-06T07:01:31.333Z,15.10
2023-05-06T07:04:01.218Z,15.10
2023-05-06T07:06:29.688Z,15.20
2023-05-06T07:08:58.068Z,15.50
2023-05-06T07:11:26.491Z,15.80
2023-05-06T07:13:54.926Z,15.80
2023-05-06T07:16:23.302Z,16.60
2023-05-06T07:18:53.829Z,17.10
2023-05-06T07:21:23.555Z,17.30
2023-05-06T07:23:51.968Z,17.30
2023-05-06T07:26:21.386Z,17.60
2023-05-06T07:28:49.658Z,17.80
2023-05-06T07:31:20.891Z,17.90
2023-05-06T07:33:49.510Z,17.90
2023-05-06T07:36:18.009Z,18.00
2023-05-06T07:38:48.048Z,18.00
2023-05-06T07:41:16.610Z,18.20
2023-05-06T07:43:45.086Z,17.90
2023-05-06T07:46:13.691Z,18.00
2023-05-06T07:48:42.179Z,17.80
2023-05-06T07:51:11.456Z,17.70
2023-05-06T07:53:40.553Z,18.00
2023-05-06T07:56:10.307Z,18.50
2023-05-06T07:58:39.062Z,18.60
2023-05-06T08:01:07.534Z,18.80
2023-05-06T08:03:36.993Z,18.70
2023-05-06T08:06:05.883Z,18.60
2023-05-06T08:08:34.224Z,18.20
2023-05-06T08:11:03.347Z,18.30
2023-05-06T08:13:33.597Z,18.60
2023-05-06T08:16:03.200Z,18.90
2023-05-06T08:18:31.929Z,19.10
2023-05-06T08:21:00.675Z,18.70
2023-05-06T08:23:29.107Z,18.40
2023-05-06T08:25:57.542Z,18.30
2023-05-06T08:28:25.972Z,18.40
2023-05-06T08:30:55.576Z,18.80
2023-05-06T08:33:24.041Z,18.60
2023-05-06T08:35:52.427Z,18.60
2023-05-06T08:38:21.182Z,18.80
2023-05-06T08:40:50.449Z,19.10
2023-05-06T08:43:21.902Z,19.20
2023-05-06T08:45:51.650Z,19.20
2023-05-06T08:48:21.573Z,19.30
2023-05-06T08:50:53.141Z,19.00
2023-05-06T08:53:21.700Z,18.90
2023-05-06T08:55:52.745Z,19.00
2023-05-06T08:58:22.294Z,19.40
2023-05-06T09:00:51.479Z,19.50
2023-05-06T09:03:21.420Z,19.60
2023-05-06T09:05:49.940Z,19.60
2023-05-06T09:08:18.359Z,19.70
2023-05-06T09:10:47.617Z,19.70
2023-05-06T09:13:17.057Z,19.70
2023-05-06T09:15:47.419Z,19.90
2023-05-06T09:18:16.548Z,19.90
2023-05-06T09:20:49.057Z,19.90
2023-05-06T09:23:18.944Z,20.10
2023-05-06T09:25:49.812Z,20.10
2023-05-06T09:28:18.225Z,20.20
2023-05-06T09:30:47.775Z,20.30
2023-05-06T09:33:16.680Z,20.30
2023-05-06T09:35:46.574Z,20.40
2023-05-06T09:38:15.295Z,20.40
2023-05-06T09:40:43.828Z,20.40
2023-05-06T09:43:12.857Z,20.40
2023-05-06T09:45:41.735Z,20.40
2023-05-06T09:48:10.480Z,20.50
2023-05-06T09:50:39.031Z,20.60
2023-05-06T09:53:09.217Z,20.50
2023-05-06T09:55:38.529Z,20.50
2023-05-06T09:58:08.203Z,20.40
2023-05-06T10:00:37.517Z,20.50
2023-05-06T10:03:07.320Z,20.50
2023-05-06T10:05:36.656Z,20.50
2023-05-06T10:08:05.647Z,20.50
2023-05-06T10:10:36.378Z,20.50
2023-05-06T10:13:05.118Z,20.20
2023-05-06T10:15:34.250Z,20.30
2023-05-06T10:18:04.425Z,20.50
2023-05-06T10:20:34.879Z,20.60
2023-05-06T10:23:08.748Z,20.60
2023-05-06T10:25:40.098Z,20.70
2023-05-06T10:28:12.019Z,20.70
2023-05-06T10:30:48.763Z,20.80
2023-05-06T10:33:17.870Z,20.80
2023-05-06T10:35:53.791Z,20.80
2023-05-06T10:38:28.089Z,20.90
2023-05-06T10:40:58.238Z,21.00
2023-05-06T10:43:29.713Z,21.00
2023-05-06T10:46:06.852Z,21.00
2023-05-06T10:48:35.889Z,21.10
2023-05-06T10:51:28.439Z,21.10
2023-05-06T10:54:02.478Z,21.20
2023-05-06T10:56:34.093Z,21.20
2023-05-06T10:59:08.785Z,21.10
2023-05-06T11:01:37.710Z,21.10
2023-05-06T11:04:13.970Z,21.00
2023-05-06T11:06:43.228Z,21.00
2023-05-06T11:09:18.450Z,21.00
2023-05-06T11:11:53.352Z,21.00
2023-05-06T11:14:32.293Z,21.00
2023-05-06T11:17:02.459Z,21.00
2023-05-06T11:19:31.955Z,21.00
2023-05-06T11:22:01.794Z,21.10
2023-05-06T11:24:31.589Z,21.10
2023-05-06T11:27:01.817Z,21.10
2023-05-06T11:29:30.222Z,21.10
2023-05-06T11:31:59.081Z,21.20
2023-05-06T11:34:28.790Z,21.20
2023-05-06T11:37:02.542Z,21.20
2023-05-06T11:39:36.668Z,21.30
2023-05-06T11:42:09.904Z,21.30
2023-05-06T11:44:40.470Z,21.30
2023-05-06T11:47:09.761Z,21.30
2023-05-06T11:49:39.617Z,21.30
2023-05-06T11:52:09.413Z,21.40
2023-05-06T11:54:39.680Z,21.40
2023-05-06T11:57:10.025Z,21.40
2023-05-06T11:59:39.827Z,21.40
2023-05-06T12:02:09.088Z,21.30
2023-05-06T12:04:41.752Z,21.30
2023-05-06T12:07:11.534Z,21.40
2023-05-06T12:09:42.667Z,21.40
2023-05-06T12:12:13.490Z,21.40
2023-05-06T12:14:42.575Z,21.40
2023-05-06T12:17:13.855Z,21.40
2023-05-06T12:19:42.692Z,21.40
2023-05-06T12:22:21.053Z,21.40
2023-05-06T12:24:50.549Z,21.40
2023-05-06T12:27:32.167Z,21.40
2023-05-06T12:30:00.682Z,21.40
2023-05-06T12:32:29.200Z,21.40
2023-05-06T12:34:59.527Z,21.40
2023-05-06T12:37:29.852Z,21.40
2023-05-06T12:40:08.430Z,21.40
2023-05-06T12:42:38.273Z,21.50
2023-05-06T12:45:16.345Z,21.60
2023-05-06T12:47:54.610Z,21.60
2023-05-06T12:50:33.497Z,21.70
2023-05-06T12:53:02.491Z,21.70
2023-05-06T12:55:31.813Z,21.70
2023-05-06T12:58:01.494Z,21.70
2023-05-06T13:00:30.064Z,21.70
2023-05-06T13:02:58.540Z,21.70
2023-05-06T13:05:27.049Z,21.70
2023-05-06T13:07:56.314Z,21.70
2023-05-06T13:10:24.823Z,21.60
2023-05-06T13:12:53.233Z,21.70
2023-05-06T13:15:23.128Z,21.70
2023-05-06T13:17:51.844Z,21.60
2023-05-06T13:20:20.718Z,21.50
2023-05-06T13:22:54.924Z,21.60
2023-05-06T13:25:24.092Z,21.50
2023-05-06T13:27:52.486Z,21.50
2023-05-06T13:30:22.047Z,21.00
2023-05-06T13:32:50.545Z,21.10
2023-05-06T13:35:19.253Z,21.20
2023-05-06T13:37:47.699Z,20.90
2023-05-06T13:40:16.288Z,20.30
2023-05-06T13:42:44.760Z,20.10
2023-05-06T13:45:13.263Z,19.80
2023-05-06T13:47:44.184Z,20.20
2023-05-06T13:50:13.013Z,20.60
2023-05-06T13:52:41.465Z,20.40
2023-05-06T13:55:11.274Z,20.20
2023-05-06T13:57:40.162Z,19.90
2023-05-06T14:00:10.901Z,19.80
2023-05-06T14:02:39.460Z,20.00
2023-05-06T14:05:10.576Z,19.90
2023-05-06T14:07:40.528Z,19.80
2023-05-06T14:10:10.171Z,19.70
2023-05-06T14:12:38.627Z,19.70
2023-05-06T14:15:08.177Z,19.80
2023-05-06T14:17:37.117Z,20.00
2023-05-06T14:20:06.460Z,20.10
2023-05-06T14:22:36.208Z,20.20
2023-05-06T14:25:04.679Z,20.30
2023-05-06T14:27:33.161Z,20.20
2023-05-06T14:30:01.573Z,20.00
2023-05-06T14:32:30.034Z,20.00
2023-05-06T14:34:58.477Z,20.00
2023-05-06T14:37:26.977Z,20.00
2023-05-06T14:39:58.219Z,20.00
2023-05-06T14:42:27.028Z,19.90
2023-05-06T14:44:55.463Z,19.90
2023-05-06T14:47:24.098Z,20.00
2023-05-06T14:49:52.593Z,20.20
2023-05-06T14:52:21.521Z,20.20
2023-05-06T14:54:49.806Z,20.20
2023-05-06T14:57:19.835Z,20.10
2023-05-06T14:59:48.546Z,20.20
2023-05-06T15:02:16.947Z,19.90
2023-05-06T15:04:46.114Z,19.90
2023-05-06T15:07:14.619Z,19.90
2023-05-06T15:09:44.065Z,20.00
2023-05-06T15:12:12.822Z,20.10
2023-05-06T15:14:42.497Z,20.10
2023-05-06T15:17:13.508Z,20.20
2023-05-06T15:19:42.211Z,20.20
2023-05-06T15:22:10.609Z,20.00
2023-05-06T15:24:38.987Z,19.90
2023-05-06T15:27:07.814Z,20.00
2023-05-06T15:29:36.643Z,20.00
2023-05-06T15:32:07.079Z,19.80
2023-05-06T15:34:35.870Z,19.90
2023-05-06T15:37:04.472Z,19.90
2023-05-06T15:39:37.653Z,20.00
2023-05-06T15:42:06.435Z,19.80
2023-05-06T15:44:35.202Z,19.80
2023-05-06T15:47:03.659Z,19.90
2023-05-06T15:49:51.384Z,19.80
2023-05-06T15:52:22.697Z,19.60
2023-05-06T15:54:51.151Z,19.50
2023-05-06T15:57:19.566Z,19.20
2023-05-06T15:59:48.356Z,19.20
2023-05-06T16:04:49.746Z,19.20
2023-05-06T16:07:18.290Z,19.00
2023-05-06T16:09:46.789Z,19.00
2023-05-06T16:12:15.486Z,18.80
2023-05-06T16:14:43.882Z,19.10
2023-05-06T16:17:12.360Z,19.10
2023-05-06T16:19:41.027Z,19.10
2023-05-06T16:22:10.828Z,18.80
2023-05-06T16:24:39.205Z,19.10
2023-05-06T16:27:07.662Z,19.20
2023-05-06T16:29:36.185Z,19.00
2023-05-06T16:32:04.668Z,19.00
2023-05-06T16:34:33.382Z,18.80
2023-05-06T16:37:01.753Z,19.00
2023-05-06T16:39:31.607Z,19.00
2023-05-06T16:42:00.167Z,18.80
2023-05-06T16:44:28.434Z,18.30
2023-05-06T16:46:56.932Z,18.10
2023-05-06T16:49:27.855Z,18.00
2023-05-06T16:51:57.098Z,18.00
2023-05-06T16:54:25.650Z,17.80
2023-05-06T16:56:55.430Z,17.60
2023-05-06T16:59:24.140Z,17.60
2023-05-06T17:01:52.809Z,17.70
2023-05-06T17:04:21.336Z,17.80
2023-05-06T17:06:49.778Z,18.00
2023-05-06T17:09:18.334Z,17.80
2023-05-06T17:11:46.795Z,17.90
2023-05-06T17:14:16.753Z,17.90
2023-05-06T17:16:45.360Z,18.00
2023-05-06T17:19:14.185Z,17.90
2023-05-06T17:21:42.902Z,17.90
2023-05-06T17:24:11.576Z,17.90
2023-05-06T17:26:40.927Z,17.90
2023-05-06T17:29:09.368Z,17.90
2023-05-06T17:31:39.154Z,17.80
2023-05-06T17:34:07.570Z,17.70
2023-05-06T17:36:35.925Z,17.80
2023-05-06T17:39:05.329Z,17.80
2023-05-06T17:41:33.873Z,17.60
2023-05-06T17:44:02.273Z,17.80
2023-05-06T17:46:31.235Z,18.00
2023-05-06T17:49:01.058Z,18.00
2023-05-06T17:51:29.466Z,18.00
2023-05-06T17:53:59.011Z,18.20
2023-05-06T17:56:27.741Z,18.20
2023-05-06T17:58:56.740Z,18.00
2023-05-06T18:01:25.171Z,17.90
2023-05-06T18:03:53.981Z,17.90
2023-05-06T18:06:23.649Z,17.70
2023-05-06T18:08:52.032Z,17.70
2023-05-06T18:11:20.787Z,17.90
2023-05-06T18:13:49.052Z,17.90
2023-05-06T18:16:17.532Z,17.90
2023-05-06T18:18:46.305Z,18.00
2023-05-06T18:21:14.686Z,17.80
2023-05-06T18:23:44.470Z,17.60
2023-05-06T18:26:12.918Z,17.40
2023-05-06T18:28:41.735Z,17.60
2023-05-06T18:31:10.142Z,18.00
2023-05-06T18:33:38.614Z,18.00
2023-05-06T18:36:07.515Z,18.00
2023-05-06T18:38:36.244Z,17.80
2023-05-06T18:41:06.938Z,17.90
2023-05-06T18:43:35.347Z,18.10
2023-05-06T18:46:05.437Z,18.20
2023-05-06T18:48:33.984Z,17.90
2023-05-06T18:51:12.589Z,17.80
2023-05-06T18:53:42.008Z,17.80
2023-05-06T18:56:12.078Z,17.90
2023-05-06T18:58:41.085Z,17.80
2023-05-06T19:01:10.777Z,17.80
2023-05-06T19:03:39.898Z,17.60
2023-05-06T19:06:09.283Z,17.60
2023-05-06T19:08:37.953Z,17.60
2023-05-06T19:11:06.577Z,17.50
2023-05-06T19:13:36.172Z,17.60
2023-05-06T19:16:04.641Z,17.60
2023-05-06T19:18:33.338Z,17.70
2023-05-06T19:21:02.563Z,17.50
2023-05-06T19:23:31.143Z,17.50
2023-05-06T19:25:59.528Z,17.50
2023-05-06T19:28:28.010Z,17.50
2023-05-06T19:30:57.840Z,17.40
2023-05-06T19:33:26.468Z,17.30
2023-05-06T19:35:55.011Z,17.30
2023-05-06T19:38:23.623Z,17.30
2023-05-06T19:40:51.980Z,17.20
2023-05-06T19:43:20.517Z,17.20
2023-05-06T19:45:49.299Z,17.20
2023-05-06T19:48:19.664Z,17.10
2023-05-06T19:50:48.114Z,17.00
2023-05-06T19:53:17.771Z,17.10
2023-05-06T19:55:46.232Z,17.10
2023-05-06T19:58:17.216Z,17.10
2023-05-06T20:00:46.554Z,17.10
2023-05-06T20:03:15.233Z,17.10
2023-05-06T20:05:45.023Z,17.00
2023-05-06T20:08:13.466Z,17.10
2023-05-06T20:10:41.853Z,16.90
2023-05-06T20:13:11.892Z,17.00
2023-05-06T20:15:40.354Z,17.00
2023-05-06T20:18:09.088Z,17.00
2023-05-06T20:20:37.986Z,16.90
2023-05-06T20:23:08.187Z,16.80
2023-05-06T20:25:37.356Z,16.90
2023-05-06T20:28:06.769Z,16.90
2023-05-06T20:30:35.387Z,16.90
2023-05-06T20:33:03.900Z,16.90
2023-05-06T20:35:38.066Z,16.90
2023-05-06T20:38:09.380Z,16.90
2023-05-06T20:40:38.137Z,17.00
2023-05-06T20:43:06.677Z,17.00
2023-05-06T20:45:35.131Z,17.00
2023-05-06T20:48:03.783Z,16.80
2023-05-06T20:50:32.203Z,16.90
2023-05-06T20:53:01.592Z,16.80
2023-05-06T20:55:31.568Z,16.80
2023-05-06T20:58:00.168Z,16.80
2023-05-06T21:00:28.876Z,16.80
2023-05-06T21:02:57.367Z,16.80
2023-05-06T21:05:26.114Z,16.80
2023-05-06T21:07:54.448Z,16.80
2023-05-06T21:10:23.068Z,16.70
2023-05-06T21:12:52.775Z,16.70
2023-05-06T21:15:21.287Z,16.70
2023-05-06T21:17:50.671Z,16.70
2023-05-06T21:20:19.618Z,16.70
2023-05-06T21:22:48.069Z,16.70
2023-05-06T21:25:16.843Z,16.70
2023-05-06T21:27:45.258Z,16.70
2023-05-06T21:30:15.389Z,16.80
2023-05-06T21:32:44.090Z,16.80
2023-05-06T21:35:12.974Z,16.70
2023-05-06T21:37:41.530Z,16.60
2023-05-06T21:40:11.571Z,16.60
2023-05-06T21:42:40.025Z,16.60
2023-05-06T21:45:09.363Z,16.60
2023-05-06T21:47:39.468Z,16.70
2023-05-06T21:50:10.701Z,16.70
2023-05-06T21:52:39.342Z,16.60
2023-05-06T21:55:08.579Z,16.60
2023-05-06T21:57:37.180Z,16.60
2023-05-06T22:00:11.952Z,16.70
2023-05-06T22:02:42.436Z,16.60
2023-05-06T22:05:11.391Z,16.60
2023-05-06T22:07:40.037Z,16.70
2023-05-06T22:10:09.125Z,16.70
2023-05-06T22:12:37.784Z,16.70
2023-05-06T22:15:07.458Z,16.70
2023-05-06T22:17:35.908Z,16.60
2023-05-06T22:20:06.875Z,16.60
2023-05-06T22:22:35.707Z,16.60
2023-05-06T22:25:04.601Z,16.50
2023-05-06T22:27:33.070Z,16.50
2023-05-06T22:30:01.535Z,16.50
2023-05-06T22:32:30.289Z,16.50
2023-05-06T22:34:58.654Z,16.50
2023-05-06T22:37:28.396Z,16.50
2023-05-06T22:39:57.792Z,16.50
2023-05-06T22:42:26.274Z,16.50
2023-05-06T22:44:54.848Z,16.40
2023-05-06T22:47:23.222Z,16.50
2023-05-06T22:49:51.679Z,16.50
2023-05-06T22:52:20.345Z,16.60
2023-05-06T22:54:49.819Z,16.50
2023-05-06T22:57:19.184Z,16.50
2023-05-06T22:59:47.802Z,16.50
2023-05-06T23:02:16.105Z,16.40
2023-05-06T23:04:44.542Z,16.30
2023-05-06T23:07:13.862Z,16.30
2023-05-06T23:09:42.402Z,16.30
2023-05-06T23:12:12.050Z,16.30
2023-05-06T23:14:40.504Z,16.20
2023-05-06T23:17:09.054Z,16.20
2023-05-06T23:19:37.899Z,16.20
2023-05-06T23:22:06.308Z,16.20
2023-05-06T23:24:34.800Z,16.20
2023-05-06T23:27:03.214Z,16.20
2023-05-06T23:29:32.998Z,16.20
2023-05-06T23:32:01.438Z,16.20
2023-05-06T23:34:29.816Z,16.20
2023-05-06T23:36:59.752Z,16.10
2023-05-06T23:39:28.463Z,16.10
2023-05-06T23:41:56.852Z,16.10
2023-05-06T23:44:25.345Z,16.10
2023-05-06T23:46:54.961Z,16.10
2023-05-06T23:49:23.333Z,16.00
2023-05-06T23:51:51.786Z,16.00
2023-05-06T23:54:20.910Z,16.00
2023-05-06T23:56:49.656Z,16.00
2023-05-06T23:59:18.489Z,16.00
